Time;durP1;ratioP1;P1;durP2;ratioP2;P2;SDS_P1;SDS_P2;PMS_P1;PMS_P2;Temp;Humidity;BMP_temperature;BMP_pressure;BME280_temperature;BME280_humidity;BME280_pressure;Samples;Min_cycle;Max_cycle;Signal;HPM_P1;HPM_P2
2022/02/26 00:00:01;;;;;;;9.57;2.58;;;4.00;99.90;;;;;;5027759;28;20038;-32
2022/02/26 00:02:28;;;;;;;6.78;2.78;;;4.00;99.90;;;;;;5017173;28;20389;-33
2022/02/26 00:04:54;;;;;;;5.53;2.10;;;4.00;99.90;;;;;;5027993;28;20021;-31
2022/02/26 00:07:20;;;;;;;15.77;2.97;;;3.90;99.90;;;;;;5015720;28;20030;-31
2022/02/26 00:09:45;;;;;;;7.10;2.83;;;3.90;99.90;;;;;;5028072;28;20034;-32
2022/02/26 00:12:11;;;;;;;12.63;2.33;;;3.90;99.90;;;;;;5032915;28;20033;-39
2022/02/26 00:14:37;;;;;;;19.17;2.80;;;3.90;99.90;;;;;;5032854;28;20499;-35
2022/02/26 00:17:02;;;;;;;16.67;3.22;;;4.00;99.90;;;;;;5029157;28;20101;-48
2022/02/26 00:19:28;;;;;;;18.92;2.58;;;4.00;99.90;;;;;;5014062;28;20421;-34
2022/02/26 00:21:54;;;;;;;11.43;2.40;;;3.90;99.90;;;;;;5013099;28;20030;-42
2022/02/26 00:24:20;;;;;;;13.50;2.47;;;3.80;99.90;;;;;;5013844;28;20022;-34
2022/02/26 00:26:45;;;;;;;28.08;4.47;;;3.80;99.90;;;;;;5019114;28;20048;-35
2022/02/26 00:29:11;;;;;;;22.58;3.10;;;3.80;99.90;;;;;;5032514;28;20021;-32
2022/02/26 00:31:36;;;;;;;14.35;4.28;;;3.80;99.90;;;;;;5022064;28;20457;-36
2022/02/26 00:34:02;;;;;;;6.55;2.53;;;3.80;99.90;;;;;;5031595;28;20075;-39
2022/02/26 00:36:28;;;;;;;12.38;2.95;;;3.80;99.90;;;;;;5015729;28;20057;-33
2022/02/26 00:38:55;;;;;;;15.98;2.55;;;3.70;99.90;;;;;;5032208;28;20481;-33
2022/02/26 00:41:21;;;;;;;15.73;3.60;;;3.70;99.90;;;;;;5025128;28;20146;-33
2022/02/26 00:43:46;;;;;;;4.95;2.88;;;3.70;99.90;;;;;;5032382;28;20061;-34
2022/02/26 00:46:12;;;;;;;11.27;3.10;;;3.60;99.90;;;;;;5032417;28;20029;-38
2022/02/26 00:51:22;;;;;;;8.35;2.67;;;3.60;99.90;;;;;;5017069;28;20563;-31
2022/02/26 00:53:48;;;;;;;8.98;3.78;;;3.50;99.90;;;;;;5032377;28;20113;-34
2022/02/26 00:56:14;;;;;;;15.10;3.38;;;3.50;99.90;;;;;;5025681;28;20088;-30
2022/02/26 00:58:39;;;;;;;7.22;2.85;;;3.50;99.90;;;;;;5032057;28;20044;-32
2022/02/26 01:01:05;;;;;;;20.90;3.38;;;3.50;99.90;;;;;;5025177;28;20028;-40
2022/02/26 01:03:31;;;;;;;12.93;2.60;;;3.50;99.90;;;;;;5026346;28;20393;-38
2022/02/26 01:05:56;;;;;;;12.32;2.60;;;3.50;99.90;;;;;;5018094;28;20115;-38
2022/02/26 01:08:22;;;;;;;11.25;2.67;;;3.50;99.90;;;;;;5029666;28;20110;-33
2022/02/26 01:10:48;;;;;;;5.70;2.15;;;3.50;99.90;;;;;;5029053;28;20029;-37
2022/02/26 01:13:13;;;;;;;8.73;2.80;;;3.50;99.90;;;;;;5030678;28;20033;-35
2022/02/26 01:15:39;;;;;;;16.45;3.13;;;3.40;99.90;;;;;;5023351;28;20026;-39
2022/02/26 01:18:05;;;;;;;5.60;2.42;;;3.40;99.90;;;;;;5013402;28;20108;-35
2022/02/26 01:20:30;;;;;;;15.38;2.78;;;3.40;99.90;;;;;;5025268;28;20026;-32
2022/02/26 01:22:56;;;;;;;10.07;2.50;;;3.50;99.90;;;;;;5027168;28;20040;-37
2022/02/26 01:25:22;;;;;;;15.00;2.47;;;3.40;99.90;;;;;;5023133;28;20037;-34
2022/02/26 01:27:47;;;;;;;17.88;3.63;;;3.40;99.90;;;;;;5030936;28;20039;-34
2022/02/26 01:30:13;;;;;;;11.23;2.78;;;3.50;99.90;;;;;;5025100;28;20108;-30
2022/02/26 01:32:41;;;;;;;10.40;2.50;;;3.50;99.90;;;;;;5032888;28;20029;-35
2022/02/26 01:35:07;;;;;;;;;;;3.40;99.90;;;;;;5023951;28;20375;-33
2022/02/26 01:37:33;;;;;;;10.55;2.40;;;3.40;99.90;;;;;;5034441;28;19954;-34
2022/02/26 01:39:58;;;;;;;8.65;2.42;;;3.50;99.90;;;;;;5036611;28;20389;-34
2022/02/26 01:42:24;;;;;;;8.18;3.00;;;3.50;99.90;;;;;;5045833;28;20034;-31
2022/02/26 01:44:52;;;;;;;8.77;2.47;;;3.40;99.90;;;;;;5020838;28;20367;-39
2022/02/26 01:47:18;;;;;;;20.77;3.13;;;3.30;99.90;;;;;;5032475;28;20544;-30
2022/02/26 01:49:44;;;;;;;12.70;3.53;;;3.20;99.90;;;;;;5006515;28;20168;-32
2022/02/26 01:52:10;;;;;;;20.25;3.47;;;3.10;99.90;;;;;;5032577;28;20028;-43
2022/02/26 01:54:36;;;;;;;7.05;2.80;;;3.10;99.90;;;;;;5006845;28;20029;-31
2022/02/26 01:57:03;;;;;;;6.35;2.35;;;3.00;99.90;;;;;;5035331;28;20033;-34
2022/02/26 01:59:28;;;;;;;15.10;2.45;;;3.00;99.90;;;;;;5040037;28;20030;-33
2022/02/26 02:01:54;;;;;;;16.08;2.72;;;2.90;99.90;;;;;;5015295;28;20409;-35
2022/02/26 02:04:20;;;;;;;16.95;4.20;;;2.90;99.90;;;;;;5015268;28;20096;-32
2022/02/26 02:06:46;;;;;;;13.80;3.55;;;2.90;99.90;;;;;;5026104;28;20033;-36
2022/02/26 02:09:12;;;;;;;15.18;2.50;;;2.90;99.90;;;;;;5032059;28;20108;-34
2022/02/26 02:11:38;;;;;;;17.40;2.50;;;2.90;99.90;;;;;;5039893;28;20096;-32
2022/02/26 02:14:04;;;;;;;6.80;2.65;;;2.90;99.90;;;;;;5031080;28;20039;-36
2022/02/26 02:16:30;;;;;;;20.75;3.38;;;2.90;99.90;;;;;;5039913;28;20045;-36
2022/02/26 02:18:56;;;;;;;18.23;2.83;;;2.90;99.90;;;;;;5016229;28;20026;-34
2022/02/26 02:21:22;;;;;;;12.75;2.90;;;2.90;99.90;;;;;;5029128;28;20030;-32
2022/02/26 02:23:48;;;;;;;10.80;2.65;;;2.90;99.90;;;;;;5024600;28;20420;-31
2022/02/26 02:26:15;;;;;;;10.30;2.85;;;2.80;99.90;;;;;;5033686;28;20033;-32
2022/02/26 02:28:40;;;;;;;13.50;2.40;;;2.80;99.90;;;;;;5026034;28;20108;-43
2022/02/26 02:31:07;;;;;;;7.53;2.70;;;2.70;99.90;;;;;;5021554;28;20574;-36
2022/02/26 02:33:40;;;;;;;12.30;4.07;;;2.70;99.90;;;;;;5016366;28;20034;-30
2022/02/26 02:36:06;;;;;;;17.05;3.72;;;2.70;99.90;;;;;;5026628;28;20430;-35
2022/02/26 02:38:32;;;;;;;7.50;2.83;;;2.70;99.90;;;;;;5019399;28;20029;-31
2022/02/26 02:40:58;;;;;;;10.00;2.72;;;2.70;99.90;;;;;;5024792;28;20468;-33
2022/02/26 02:43:24;;;;;;;16.02;2.67;;;2.70;99.90;;;;;;5034473;28;20017;-41
2022/02/26 02:45:49;;;;;;;4.40;2.40;;;2.70;99.90;;;;;;5027963;28;20036;-36
2022/02/26 02:48:15;;;;;;;14.20;4.45;;;2.70;99.90;;;;;;5015097;28;20037;-42
2022/02/26 02:50:41;;;;;;;11.82;3.28;;;2.60;99.90;;;;;;5017774;28;20118;-35
2022/02/26 02:53:07;;;;;;;10.27;2.55;;;2.60;99.90;;;;;;5034159;28;20095;-36
2022/02/26 02:55:33;;;;;;;6.20;2.40;;;2.60;99.90;;;;;;5028753;28;20413;-36
2022/02/26 02:57:59;;;;;;;12.15;2.30;;;2.60;99.90;;;;;;5022678;28;20091;-31
2022/02/26 03:00:26;;;;;;;6.82;2.42;;;2.50;99.90;;;;;;5033571;28;20028;-34
2022/02/26 03:02:52;;;;;;;9.30;3.72;;;2.50;99.90;;;;;;5017783;28;20536;-34
2022/02/26 03:05:20;;;;;;;14.38;3.17;;;2.60;99.90;;;;;;5024688;28;20136;-34
2022/02/26 03:07:50;;;;;;;6.38;2.40;;;2.60;99.90;;;;;;5025028;28;20524;-35
2022/02/26 03:10:16;;;;;;;11.00;3.38;;;2.60;99.90;;;;;;5014708;28;20394;-32
2022/02/26 03:12:42;;;;;;;4.22;2.10;;;2.60;99.90;;;;;;5019145;28;20029;-45
2022/02/26 03:15:08;;;;;;;8.80;2.50;;;2.60;99.90;;;;;;5031778;28;20021;-38
2022/02/26 03:17:34;;;;;;;9.75;2.50;;;2.50;99.90;;;;;;5034881;28;20030;-34
2022/02/26 03:20:00;;;;;;;4.60;2.25;;;2.50;99.90;;;;;;5033255;28;20036;-34
2022/02/26 03:22:25;;;;;;;5.47;2.60;;;2.50;99.90;;;;;;5035287;28;20029;-33
2022/02/26 03:24:51;;;;;;;12.82;3.28;;;2.50;99.90;;;;;;5033360;28;20136;-32
2022/02/26 03:27:16;;;;;;;11.82;3.55;;;2.50;99.90;;;;;;5032723;28;20501;-31
2022/02/26 03:29:43;;;;;;;9.00;3.03;;;2.60;99.90;;;;;;5031693;28;20033;-38
2022/02/26 03:32:10;;;;;;;14.93;2.92;;;2.60;99.90;;;;;;5020606;28;20030;-50
2022/02/26 03:34:36;;;;;;;10.90;3.75;;;2.60;99.90;;;;;;5042888;28;20551;-31
2022/02/26 03:37:03;;;;;;;10.30;3.22;;;2.60;99.90;;;;;;5029986;28;20026;-32
2022/02/26 03:39:31;;;;;;;12.35;2.95;;;2.60;99.90;;;;;;5033094;28;20029;-35
2022/02/26 03:41:58;;;;;;;13.80;4.22;;;2.60;99.90;;;;;;5052757;28;20470;-36
2022/02/26 03:44:25;;;;;;;9.43;3.17;;;2.50;99.90;;;;;;5038115;28;20065;-33
2022/02/26 03:46:50;;;;;;;11.43;3.88;;;2.50;99.90;;;;;;5035046;28;20100;-34
2022/02/26 03:49:16;;;;;;;14.75;3.45;;;2.60;99.90;;;;;;5044381;28;20064;-32
2022/02/26 03:51:42;;;;;;;14.43;3.22;;;2.60;99.90;;;;;;5048099;28;20040;-37
2022/02/26 03:54:07;;;;;;;11.38;3.10;;;2.50;99.90;;;;;;5034671;28;20034;-30
2022/02/26 03:56:33;;;;;;;8.27;3.65;;;2.50;99.90;;;;;;5042657;28;20068;-37
2022/02/26 03:58:59;;;;;;;9.65;3.80;;;2.50;99.90;;;;;;5026162;28;20133;-30
2022/02/26 04:04:10;;;;;;;12.32;3.22;;;2.50;99.90;;;;;;5048166;28;20044;-32
2022/02/26 04:06:35;;;;;;;10.85;4.40;;;2.50;99.90;;;;;;5039422;28;20112;-33
2022/02/26 04:09:03;;;;;;;15.80;3.88;;;2.50;99.90;;;;;;5033708;28;20454;-37
2022/02/26 04:11:29;;;;;;;10.77;4.25;;;2.50;99.90;;;;;;5013599;28;20036;-33
2022/02/26 04:13:54;;;;;;;12.20;3.25;;;2.50;99.90;;;;;;5037369;28;20029;-39
2022/02/26 04:16:20;;;;;;;21.55;4.03;;;2.50;99.90;;;;;;5043860;28;20112;-45
2022/02/26 04:18:46;;;;;;;12.82;3.45;;;2.40;99.90;;;;;;5032845;28;20552;-30
2022/02/26 04:21:13;;;;;;;5.35;3.58;;;2.40;99.90;;;;;;5031142;28;20045;-37
2022/02/26 04:23:39;;;;;;;16.00;3.75;;;2.40;99.90;;;;;;5039153;28;20070;-50
2022/02/26 04:26:04;;;;;;;9.02;4.43;;;2.40;99.90;;;;;;5037546;28;20486;-33
2022/02/26 04:28:30;;;;;;;8.35;3.42;;;2.40;99.90;;;;;;5022382;28;20160;-31
2022/02/26 04:30:55;;;;;;;15.30;3.60;;;2.40;99.90;;;;;;5037492;28;20029;-41
2022/02/26 04:33:21;;;;;;;12.15;4.07;;;2.40;99.90;;;;;;5026214;28;20026;-34
2022/02/26 04:35:47;;;;;;;17.50;4.03;;;2.40;99.90;;;;;;5032700;28;20033;-35
2022/02/26 04:38:12;;;;;;;10.65;3.72;;;2.40;99.90;;;;;;5014532;28;20036;-35
2022/02/26 04:40:38;;;;;;;14.43;4.28;;;2.40;99.90;;;;;;5035506;28;20021;-34
2022/02/26 04:43:04;;;;;;;14.55;4.13;;;2.40;99.90;;;;;;5031872;28;20291;-33
2022/02/26 04:45:30;;;;;;;7.70;4.00;;;2.40;99.90;;;;;;5049588;28;20132;-32
2022/02/26 04:47:55;;;;;;;8.48;4.05;;;2.40;99.90;;;;;;5032347;28;20080;-31
2022/02/26 04:50:21;;;;;;;11.15;4.30;;;2.40;99.90;;;;;;5051542;28;20512;-32
2022/02/26 04:52:47;;;;;;;7.93;4.35;;;2.40;99.90;;;;;;5043878;28;20551;-39
2022/02/26 04:55:13;;;;;;;16.67;3.10;;;2.40;99.90;;;;;;5037404;28;20033;-31
2022/02/26 04:57:39;;;;;;;5.57;3.65;;;2.40;99.90;;;;;;5030678;28;20045;-31
2022/02/26 05:00:07;;;;;;;14.10;4.32;;;2.40;99.90;;;;;;5032318;28;20082;-31
2022/02/26 05:02:32;;;;;;;8.82;4.18;;;2.40;99.90;;;;;;5032784;28;20511;-31
2022/02/26 05:04:58;;;;;;;13.57;4.13;;;2.40;99.90;;;;;;5036588;28;20033;-33
2022/02/26 05:07:24;;;;;;;10.32;3.88;;;2.40;99.90;;;;;;5056049;28;20506;-47
2022/02/26 05:09:50;;;;;;;18.58;4.45;;;2.40;99.90;;;;;;5041909;28;20047;-33
2022/02/26 05:12:16;;;;;;;14.27;4.20;;;2.40;99.90;;;;;;5042219;28;20033;-54
2022/02/26 05:14:41;;;;;;;4.97;3.17;;;2.40;99.90;;;;;;5039562;28;20087;-33
2022/02/26 05:17:07;;;;;;;7.50;3.13;;;2.40;99.90;;;;;;5055794;28;20036;-39
2022/02/26 05:19:33;;;;;;;6.00;2.90;;;2.40;99.90;;;;;;5040646;28;20053;-39
2022/02/26 05:21:58;;;;;;;15.70;4.22;;;2.40;99.90;;;;;;5044532;28;20064;-36
2022/02/26 05:24:24;;;;;;;6.75;2.92;;;2.40;99.90;;;;;;5037072;28;20021;-33
2022/02/26 05:26:49;;;;;;;13.63;3.33;;;2.40;99.90;;;;;;5040015;28;20029;-36
2022/02/26 05:29:15;;;;;;;15.27;3.47;;;2.40;99.90;;;;;;5028823;28;20040;-29
2022/02/26 05:31:41;;;;;;;10.05;3.40;;;2.40;99.90;;;;;;5043511;28;20030;-33
2022/02/26 05:34:07;;;;;;;2.95;2.30;;;2.40;99.90;;;;;;5034289;28;20140;-36
2022/02/26 05:36:33;;;;;;;7.95;2.72;;;2.40;99.90;;;;;;5030627;28;20109;-36
2022/02/26 05:38:59;;;;;;;7.38;3.58;;;2.30;99.90;;;;;;5047315;28;20121;-38
2022/02/26 05:41:24;;;;;;;9.50;3.75;;;2.30;99.90;;;;;;5044838;28;20029;-32
2022/02/26 05:43:50;;;;;;;10.98;3.63;;;2.30;99.90;;;;;;5035459;28;20032;-33
2022/02/26 05:46:15;;;;;;;12.73;3.25;;;2.30;99.90;;;;;;5033154;28;20037;-30
2022/02/26 05:48:41;;;;;;;10.70;3.15;;;2.20;99.90;;;;;;5038025;28;20029;-34
2022/02/26 05:51:07;;;;;;;14.15;3.03;;;2.30;99.90;;;;;;5048289;28;20036;-34
2022/02/26 05:53:33;;;;;;;7.20;3.60;;;2.30;99.90;;;;;;5034001;28;20029;-33
2022/02/26 05:55:59;;;;;;;19.65;3.58;;;2.30;99.90;;;;;;5037252;28;20148;-36
2022/02/26 05:58:25;;;;;;;12.40;2.95;;;2.30;99.90;;;;;;5036410;28;20037;-30
2022/02/26 06:00:50;;;;;;;6.07;3.30;;;2.40;99.90;;;;;;5035025;28;20497;-36
2022/02/26 06:03:17;;;;;;;6.10;2.92;;;2.30;99.90;;;;;;5029682;28;20042;-32
2022/02/26 06:05:42;;;;;;;7.45;2.92;;;2.30;99.90;;;;;;5037298;28;20428;-32
2022/02/26 06:08:08;;;;;;;4.53;2.30;;;2.20;99.90;;;;;;5032521;28;20079;-37
2022/02/26 06:10:34;;;;;;;12.55;2.80;;;2.20;99.90;;;;;;5037642;28;20025;-34
2022/02/26 06:13:00;;;;;;;8.88;3.67;;;2.20;99.90;;;;;;5031753;28;20067;-35
2022/02/26 06:15:26;;;;;;;15.88;3.35;;;2.20;99.90;;;;;;5023073;28;20064;-37
2022/02/26 06:17:51;;;;;;;11.02;3.28;;;2.30;99.90;;;;;;5028207;28;20029;-43
2022/02/26 06:20:18;;;;;;;8.73;3.13;;;2.30;99.90;;;;;;5025793;28;20018;-36
2022/02/26 06:22:43;;;;;;;11.70;3.28;;;2.30;99.90;;;;;;5032839;28;20053;-41
2022/02/26 06:25:09;;;;;;;21.17;4.00;;;2.30;99.90;;;;;;5016178;28;20049;-39
2022/02/26 06:27:40;;;;;;;10.02;3.20;;;2.30;99.90;;;;;;5016902;28;20474;-33
2022/02/26 06:30:07;;;;;;;15.68;3.88;;;2.40;99.90;;;;;;5023933;28;20540;-36
2022/02/26 06:32:34;;;;;;;11.82;3.88;;;2.40;99.90;;;;;;5030737;28;20469;-32
2022/02/26 06:35:00;;;;;;;10.52;3.55;;;2.50;99.90;;;;;;5032748;28;20115;-37
2022/02/26 06:37:25;;;;;;;14.82;3.88;;;2.40;99.90;;;;;;5022239;28;20113;-32
2022/02/26 06:39:51;;;;;;;14.40;3.85;;;2.40;99.90;;;;;;5030534;28;20076;-34
2022/02/26 06:42:17;;;;;;;6.65;3.50;;;2.30;99.90;;;;;;5038714;28;20025;-30
2022/02/26 06:44:42;;;;;;;11.18;3.83;;;2.40;99.90;;;;;;5033709;28;20074;-40
2022/02/26 06:47:08;;;;;;;13.15;4.30;;;2.30;99.90;;;;;;5041969;28;20104;-41
2022/02/26 06:49:33;;;;;;;8.82;4.40;;;2.40;99.90;;;;;;5031077;28;20025;-35
2022/02/26 06:51:59;;;;;;;18.73;4.30;;;2.40;99.90;;;;;;5042668;28;20060;-32
2022/02/26 06:54:25;;;;;;;17.45;4.50;;;2.50;99.90;;;;;;5037550;28;20508;-37
2022/02/26 06:56:51;;;;;;;7.93;3.72;;;2.50;99.90;;;;;;5043046;28;20385;-34
2022/02/26 06:59:17;;;;;;;20.50;4.05;;;2.60;99.90;;;;;;5033254;28;20053;-38
2022/02/26 07:01:45;;;;;;;12.77;5.65;;;2.60;99.90;;;;;;5028301;28;20030;-34
2022/02/26 07:04:11;;;;;;;16.00;4.50;;;2.60;99.90;;;;;;5037440;28;20581;-37
2022/02/26 07:06:42;;;;;;;17.25;4.88;;;2.70;99.90;;;;;;5030722;28;20030;-33
2022/02/26 07:09:09;;;;;;;21.42;4.70;;;2.70;99.90;;;;;;5037481;28;20028;-32
2022/02/26 07:11:36;;;;;;;14.85;4.53;;;2.80;99.90;;;;;;5047187;28;20385;-35
2022/02/26 07:14:01;;;;;;;9.48;4.55;;;2.80;99.90;;;;;;5019833;28;20055;-36
2022/02/26 07:16:27;;;;;;;10.63;4.90;;;2.80;99.90;;;;;;5017076;28;20025;-30
2022/02/26 07:18:52;;;;;;;12.00;4.80;;;2.90;99.90;;;;;;5031482;28;20022;-31
2022/02/26 07:21:18;;;;;;;13.07;4.97;;;2.90;99.90;;;;;;5031580;28;20025;-34
2022/02/26 07:23:44;;;;;;;18.98;5.85;;;2.90;99.90;;;;;;5034644;28;20057;-32
2022/02/26 07:26:09;;;;;;;10.15;5.20;;;3.00;99.90;;;;;;5035516;28;20053;-34
2022/02/26 07:28:35;;;;;;;6.78;4.00;;;3.10;99.90;;;;;;5033338;28;20104;-38
2022/02/26 07:31:01;;;;;;;9.75;4.50;;;3.20;99.90;;;;;;5039758;28;20029;-37
2022/02/26 07:33:26;;;;;;;14.18;4.38;;;3.20;99.90;;;;;;5033379;28;20037;-35
2022/02/26 07:35:52;;;;;;;14.15;4.65;;;3.30;99.90;;;;;;5042568;28;20033;-32
2022/02/26 07:38:17;;;;;;;13.93;4.28;;;3.40;99.90;;;;;;5023261;28;20026;-36
2022/02/26 07:40:43;;;;;;;8.88;4.35;;;3.40;99.90;;;;;;5036741;28;20021;-36
2022/02/26 07:43:10;;;;;;;7.63;4.10;;;3.40;99.90;;;;;;5035049;28;20022;-32
2022/02/26 07:45:36;;;;;;;8.60;4.03;;;3.50;99.90;;;;;;5045554;28;20385;-37
2022/02/26 07:48:02;;;;;;;8.05;4.57;;;3.50;99.90;;;;;;5034669;28;20026;-40
2022/02/26 07:50:28;;;;;;;14.35;5.47;;;3.70;99.90;;;;;;5032988;28;20037;-39
2022/02/26 07:52:53;;;;;;;11.27;4.43;;;3.80;99.90;;;;;;5022105;28;20147;-35
2022/02/26 07:55:19;;;;;;;14.35;5.05;;;3.90;99.90;;;;;;5028657;28;20057;-36
2022/02/26 07:57:44;;;;;;;18.35;6.07;;;3.90;99.90;;;;;;5031852;28;20026;-31
2022/02/26 08:00:12;;;;;;;8.30;5.00;;;3.90;99.90;;;;;;5046745;28;20374;-35
2022/02/26 08:02:37;;;;;;;12.95;4.70;;;4.00;99.90;;;;;;5038101;28;20018;-40
2022/02/26 08:05:03;;;;;;;9.90;4.25;;;4.00;99.90;;;;;;5035496;28;20036;-34
2022/02/26 08:07:29;;;;;;;11.63;5.63;;;4.10;99.90;;;;;;5032695;28;20053;-31
2022/02/26 08:09:54;;;;;;;10.73;5.13;;;4.10;99.90;;;;;;5034057;28;20108;-33
2022/02/26 08:12:20;;;;;;;10.00;4.72;;;4.20;99.90;;;;;;5034859;28;20080;-36
2022/02/26 08:14:46;;;;;;;10.75;5.85;;;4.20;99.90;;;;;;5033517;28;20057;-34
2022/02/26 08:17:11;;;;;;;10.55;4.93;;;4.30;99.90;;;;;;5038436;28;20065;-30
2022/02/26 08:19:38;;;;;;;14.63;6.15;;;4.30;99.90;;;;;;5047775;28;20017;-32
2022/02/26 08:22:04;;;;;;;10.05;4.97;;;4.40;99.90;;;;;;5033336;28;20036;-31
2022/02/26 08:24:31;;;;;;;8.35;4.95;;;4.40;99.90;;;;;;5020000;28;20029;-31
2022/02/26 08:26:56;;;;;;;9.50;5.55;;;4.50;99.90;;;;;;5034048;28;20405;-34
2022/02/26 08:29:22;;;;;;;8.98;4.70;;;4.50;99.90;;;;;;5037687;28;20022;-33
2022/02/26 08:31:47;;;;;;;9.73;4.95;;;4.60;99.90;;;;;;5019292;28;20053;-33
2022/02/26 08:34:13;;;;;;;17.15;5.10;;;4.70;99.90;;;;;;5026897;28;20067;-36
2022/02/26 08:36:41;;;;;;;8.15;5.07;;;5.00;99.90;;;;;;5033523;28;20405;-32
2022/02/26 08:39:06;;;;;;;15.02;5.97;;;5.00;99.90;;;;;;5032181;28;20048;-35
2022/02/26 08:41:32;;;;;;;14.07;6.13;;;5.10;99.90;;;;;;5033021;28;20026;-32
2022/02/26 08:43:58;;;;;;;13.18;6.68;;;5.20;99.90;;;;;;5014409;28;20021;-33
2022/02/26 08:46:23;;;;;;;9.25;4.82;;;5.40;99.90;;;;;;5039095;28;20393;-31
2022/02/26 08:48:49;;;;;;;9.57;4.80;;;5.40;99.90;;;;;;5039912;28;20025;-35
2022/02/26 08:51:14;;;;;;;12.10;5.07;;;5.40;99.90;;;;;;5035701;28;20048;-35
2022/02/26 08:53:40;;;;;;;11.90;4.97;;;5.40;99.90;;;;;;5021663;28;20026;-35
2022/02/26 08:56:06;;;;;;;11.45;4.85;;;5.40;99.90;;;;;;5031684;28;20618;-34
2022/02/26 08:58:31;;;;;;;10.77;5.47;;;5.50;99.90;;;;;;5031445;28;20073;-33
2022/02/26 09:00:57;;;;;;;10.27;5.30;;;5.50;99.90;;;;;;5030349;28;20064;-40
2022/02/26 09:03:23;;;;;;;11.40;4.95;;;5.60;99.90;;;;;;5031027;28;20025;-32
2022/02/26 09:05:50;;;;;;;12.65;5.28;;;5.90;99.90;;;;;;5015109;28;20494;-34
2022/02/26 09:08:16;;;;;;;10.38;4.70;;;6.00;99.90;;;;;;5027987;28;20030;-36
2022/02/26 09:10:42;;;;;;;12.32;5.00;;;6.10;99.90;;;;;;5029990;28;20552;-36
2022/02/26 09:13:07;;;;;;;9.77;4.93;;;6.10;99.90;;;;;;5026148;28;20438;-32
2022/02/26 09:15:33;;;;;;;8.88;4.40;;;6.20;99.90;;;;;;5023843;28;20026;-30
2022/02/26 09:17:58;;;;;;;11.15;5.22;;;6.20;99.90;;;;;;5026811;28;20104;-35
2022/02/26 09:20:24;;;;;;;7.78;4.15;;;6.30;99.90;;;;;;5031008;28;20490;-34
2022/02/26 09:22:50;;;;;;;11.05;4.43;;;6.40;99.90;;;;;;5030370;28;20401;-33
2022/02/26 09:25:16;;;;;;;16.77;4.50;;;6.40;99.90;;;;;;5029004;28;20026;-35
2022/02/26 09:27:45;;;;;;;7.97;3.95;;;6.50;99.90;;;;;;5025936;28;20491;-37
2022/02/26 09:30:12;;;;;;;17.92;3.97;;;6.60;99.90;;;;;;5021732;28;20029;-31
2022/02/26 09:32:38;;;;;;;11.80;3.40;;;6.70;99.90;;;;;;5012339;28;20041;-35
2022/02/26 09:35:05;;;;;;;8.30;3.90;;;6.80;99.90;;;;;;5023059;28;20292;-34
2022/02/26 09:37:31;;;;;;;12.48;4.18;;;6.90;99.90;;;;;;5022445;28;20414;-34
2022/02/26 09:39:59;;;;;;;16.15;4.30;;;6.90;99.90;;;;;;5030038;28;20033;-36
2022/02/26 09:42:29;;;;;;;15.95;4.38;;;7.00;99.90;;;;;;5019776;28;20096;-34
2022/02/26 09:44:56;;;;;;;16.45;4.97;;;7.10;99.90;;;;;;5028583;28;20113;-41
2022/02/26 09:47:22;;;;;;;14.82;5.25;;;7.20;99.90;;;;;;5012229;28;20080;-35
2022/02/26 09:49:48;;;;;;;20.08;4.43;;;7.20;99.90;;;;;;5024361;28;20029;-34
2022/02/26 09:52:15;;;;;;;14.32;4.07;;;7.30;99.90;;;;;;5034194;28;20057;-34
2022/02/26 09:54:41;;;;;;;12.37;5.63;;;7.30;99.90;;;;;;5030159;28;20049;-33
2022/02/26 09:57:07;;;;;;;11.73;4.70;;;7.40;99.90;;;;;;5026142;28;20041;-35
2022/02/26 09:59:32;;;;;;;14.05;5.00;;;7.40;99.90;;;;;;5026959;28;20461;-33
2022/02/26 10:02:01;;;;;;;13.32;5.20;;;7.50;99.90;;;;;;5029315;28;20390;-39
2022/02/26 10:04:28;;;;;;;12.25;5.63;;;7.70;99.90;;;;;;5029989;28;20032;-35
2022/02/26 10:07:08;;;;;;;8.20;5.03;;;7.70;99.90;;;;;;5035375;28;20104;-34
2022/02/26 10:09:39;;;;;;;16.73;5.20;;;7.80;99.90;;;;;;5030884;28;20080;-31
2022/02/26 10:12:17;;;;;;;14.23;6.50;;;7.80;99.90;;;;;;5019142;28;20174;-36
2022/02/26 10:14:43;;;;;;;9.20;6.40;;;7.90;99.90;;;;;;5022331;28;20026;-36
2022/02/26 10:17:09;;;;;;;11.23;6.85;;;7.90;99.90;;;;;;5028717;28;20021;-32
2022/02/26 10:19:35;;;;;;;17.92;6.45;;;7.90;99.90;;;;;;5026421;28;20389;-33
2022/02/26 10:22:09;;;;;;;20.23;8.30;;;7.90;99.90;;;;;;5021087;28;20071;-39
2022/02/26 10:24:36;;;;;;;16.77;7.88;;;8.00;99.90;;;;;;5022675;28;20026;-34
2022/02/26 10:27:06;;;;;;;15.85;7.40;;;8.00;99.90;;;;;;5029753;28;20470;-35
2022/02/26 10:29:36;;;;;;;18.77;7.82;;;8.10;99.90;;;;;;5016892;28;20478;-35
2022/02/26 10:32:04;;;;;;;17.10;7.35;;;8.20;99.90;;;;;;5033799;28;20020;-36
2022/02/26 10:34:33;;;;;;;13.95;5.80;;;8.30;99.90;;;;;;5048194;28;20037;-38
2022/02/26 10:37:10;;;;;;;11.07;5.55;;;8.40;99.90;;;;;;5035040;28;20540;-33
2022/02/26 10:39:38;;;;;;;16.40;6.35;;;8.40;99.90;;;;;;5022593;28;20034;-35
2022/02/26 10:42:07;;;;;;;8.50;5.15;;;8.50;99.90;;;;;;5017838;28;20037;-37
2022/02/26 10:44:34;;;;;;;18.58;6.82;;;8.60;99.90;;;;;;5026451;28;20098;-35
2022/02/26 10:47:14;;;;;;;13.55;5.80;;;8.70;99.90;;;;;;5040244;28;20138;-32
2022/02/26 10:49:45;;;;;;;7.70;4.93;;;8.70;99.90;;;;;;5035654;28;20033;-34
2022/02/26 10:52:12;;;;;;;19.77;4.22;;;8.80;99.90;;;;;;5035789;28;20029;-35
2022/02/26 10:54:39;;;;;;;7.43;2.58;;;8.90;99.90;;;;;;5044586;28;20025;-36
2022/02/26 10:57:07;;;;;;;6.35;2.83;;;9.10;99.90;;;;;;5054102;28;20029;-35
2022/02/26 10:59:37;;;;;;;8.30;2.80;;;9.10;99.90;;;;;;5039890;28;20494;-35
2022/02/26 11:02:23;;;;;;;9.45;3.22;;;9.10;99.90;;;;;;5027428;28;20378;-36
2022/02/26 11:04:51;;;;;;;5.32;3.55;;;9.10;99.90;;;;;;5022810;28;20326;-39
2022/02/26 11:07:17;;;;;;;12.00;3.75;;;9.10;99.90;;;;;;5024991;28;20022;-37
2022/02/26 11:09:45;;;;;;;15.05;4.38;;;9.30;99.90;;;;;;5027879;28;20021;-37
2022/02/26 11:12:15;;;;;;;15.05;4.40;;;9.30;99.90;;;;;;5028883;28;20484;-34
2022/02/26 11:14:57;;;;;;;14.10;3.92;;;9.30;99.90;;;;;;5022219;28;20066;-35
2022/02/26 11:17:24;;;;;;;9.98;1.95;;;9.40;99.90;;;;;;5025315;28;20474;-33
2022/02/26 11:19:55;;;;;;;10.50;2.83;;;9.50;99.90;;;;;;5014232;28;20573;-45
2022/02/26 11:22:22;;;;;;;7.10;2.28;;;9.50;99.90;;;;;;5020149;28;20056;-36
2022/02/26 11:24:49;;;;;;;7.45;3.05;;;9.50;99.90;;;;;;5033850;28;20029;-32
2022/02/26 11:27:14;;;;;;;10.70;2.17;;;9.60;99.90;;;;;;5017348;28;20072;-39
2022/02/26 11:29:41;;;;;;;7.35;2.25;;;9.70;99.90;;;;;;5032897;28;20025;-33
2022/02/26 11:32:13;;;;;;;9.77;2.47;;;9.80;99.90;;;;;;5022549;28;20030;-34
2022/02/26 11:34:39;;;;;;;9.82;2.95;;;9.90;99.90;;;;;;5028357;28;20540;-32
2022/02/26 11:37:05;;;;;;;8.00;3.72;;;9.90;99.90;;;;;;5028705;28;20029;-35
2022/02/26 11:39:42;;;;;;;10.20;2.97;;;9.90;99.90;;;;;;5028637;28;20025;-32
2022/02/26 11:42:21;;;;;;;15.35;4.03;;;10.00;99.90;;;;;;5029352;28;20557;-37
2022/02/26 11:45:04;;;;;;;14.05;4.40;;;10.10;99.90;;;;;;5029281;28;20496;-32
2022/02/26 11:47:59;;;;;;;14.13;4.03;;;10.10;99.90;;;;;;5029799;28;20021;-41
2022/02/26 11:50:29;;;;;;;10.82;4.40;;;10.30;99.90;;;;;;5018039;28;20037;-40
2022/02/26 11:53:15;;;;;;;8.70;3.60;;;10.40;99.90;;;;;;5027602;28;20459;-40
2022/02/26 11:56:03;;;;;;;12.65;4.38;;;10.40;99.90;;;;;;5030868;28;20035;-30
2022/02/26 11:58:35;;;;;;;14.77;4.75;;;10.40;99.90;;;;;;5026560;28;20102;-34
2022/02/26 12:01:13;;;;;;;13.82;4.25;;;10.50;99.90;;;;;;5023895;28;20132;-31
2022/02/26 12:03:41;;;;;;;10.32;3.38;;;10.40;99.90;;;;;;5025641;28;20021;-33
2022/02/26 12:06:13;;;;;;;8.70;3.75;;;10.30;99.90;;;;;;5024998;28;20030;-35
2022/02/26 12:08:55;;;;;;;11.35;3.95;;;10.30;99.90;;;;;;5006327;28;20029;-37
2022/02/26 12:11:20;;;;;;;12.60;3.90;;;10.30;99.90;;;;;;5024181;28;20482;-37
2022/02/26 12:13:56;;;;;;;8.32;3.47;;;10.40;99.90;;;;;;5024949;28;20049;-41
2022/02/26 12:16:21;;;;;;;13.10;3.85;;;10.50;99.90;;;;;;5026291;28;20036;-35
2022/02/26 12:18:59;;;;;;;8.13;2.75;;;10.60;99.90;;;;;;5026288;28;20033;-41
2022/02/26 12:21:31;;;;;;;15.77;3.58;;;10.60;99.90;;;;;;5025493;28;20037;-34
2022/02/26 12:24:12;;;;;;;16.27;3.83;;;10.70;99.90;;;;;;5024173;28;20028;-34
2022/02/26 12:26:57;;;;;;;8.02;2.97;;;10.70;99.90;;;;;;5024901;28;20026;-33
2022/02/26 12:29:30;;;;;;;7.40;2.17;;;10.80;99.90;;;;;;5024539;28;20060;-35
2022/02/26 12:32:06;;;;;;;4.32;2.28;;;10.80;99.90;;;;;;5024932;28;20028;-38
2022/02/26 12:34:39;;;;;;;7.60;2.67;;;10.70;99.90;;;;;;5023477;28;20471;-32
2022/02/26 12:37:11;;;;;;;6.57;2.08;;;10.60;99.90;;;;;;5024897;28;20435;-34
2022/02/26 12:39:44;;;;;;;6.95;2.33;;;10.60;99.90;;;;;;5024481;28;20048;-34
2022/02/26 12:42:09;;;;;;;7.72;1.90;;;10.60;99.90;;;;;;5007287;28;20626;-39
2022/02/26 12:44:39;;;;;;;8.15;1.60;;;10.70;99.90;;;;;;5023745;28;20449;-37
2022/02/26 12:47:08;;;;;;;13.73;2.28;;;10.70;99.90;;;;;;5021065;28;20034;-35
2022/02/26 12:49:34;;;;;;;8.55;2.20;;;10.80;99.90;;;;;;5022659;28;20101;-36
2022/02/26 12:52:04;;;;;;;12.30;2.95;;;10.90;99.90;;;;;;5005334;28;20041;-34
2022/02/26 12:54:31;;;;;;;6.38;1.92;;;11.00;99.90;;;;;;5022807;28;20048;-37